Time;durP1;ratioP1;P1;durP2;ratioP2;P2;SDS_P1;SDS_P2;PMS_P1;PMS_P2;Temp;Humidity;BMP_temperature;BMP_pressure;BME280_temperature;BME280_humidity;BME280_pressure;Samples;Min_cycle;Max_cycle;Signal;HPM_P1;HPM_P2
2022/09/20 00:01:19;;;;;;;5.53;2.23;;;10.70;99.90;;;;;;5044171;28;20458;-78
2022/09/20 00:03:48;;;;;;;4.60;2.33;;;10.80;99.90;;;;;;5043344;28;20452;-78
2022/09/20 00:06:17;;;;;;;5.43;2.27;;;10.80;99.90;;;;;;5044761;28;20459;-78
2022/09/20 00:08:45;;;;;;;6.37;2.50;;;10.70;99.90;;;;;;5044628;28;20468;-79
2022/09/20 00:11:15;;;;;;;8.03;2.50;;;10.70;99.90;;;;;;5045353;28;20543;-79
2022/09/20 00:13:43;;;;;;;10.00;2.40;;;10.80;99.90;;;;;;5044918;28;20439;-77
2022/09/20 00:16:13;;;;;;;5.90;2.67;;;10.70;99.90;;;;;;5045587;28;21138;-78
2022/09/20 00:18:40;;;;;;;3.90;2.20;;;10.70;99.90;;;;;;5043714;28;20875;-80
2022/09/20 00:21:12;;;;;;;7.63;2.80;;;10.70;99.90;;;;;;5044858;28;20456;-79
2022/09/20 00:23:39;;;;;;;5.93;3.17;;;10.70;99.90;;;;;;5043134;28;20507;-81
2022/09/20 00:26:05;;;;;;;6.90;2.13;;;10.80;99.90;;;;;;5045034;28;20453;-80
2022/09/20 00:28:33;;;;;;;8.83;2.90;;;10.70;99.90;;;;;;5045742;28;20468;-78
2022/09/20 00:31:00;;;;;;;5.83;3.00;;;10.80;99.90;;;;;;5044600;28;20507;-80
2022/09/20 00:35:06;;;;;;;4.23;2.70;;;10.70;99.90;;;;;;5043890;28;20520;-80
2022/09/20 00:36:15;;;;;;;4.93;2.63;;;10.80;99.90;;;;;;5032366;28;20436;-78
2022/09/20 00:38:42;;;;;;;7.90;2.50;;;10.70;99.90;;;;;;5044405;28;20485;-80
2022/09/20 00:41:09;;;;;;;5.90;2.53;;;10.70;99.90;;;;;;5044513;28;20815;-79
2022/09/20 00:43:38;;;;;;;8.57;3.30;;;10.70;99.90;;;;;;5044253;28;20448;-79
2022/09/20 00:46:09;;;;;;;6.03;2.70;;;10.60;99.90;;;;;;5044350;28;20449;-78
2022/09/20 00:48:37;;;;;;;5.60;2.93;;;10.70;99.90;;;;;;5043712;28;20479;-80
2022/09/20 00:51:09;;;;;;;9.50;3.50;;;10.70;99.90;;;;;;5043369;28;20488;-80
2022/09/20 00:53:39;;;;;;;9.97;2.87;;;10.70;99.90;;;;;;5042765;28;20452;-79
2022/09/20 00:56:09;;;;;;;5.70;3.03;;;10.80;99.90;;;;;;5043673;28;20474;-80
2022/09/20 00:58:41;;;;;;;5.87;3.40;;;10.80;99.90;;;;;;5043568;28;20555;-80
2022/09/20 01:01:09;;;;;;;5.27;3.03;;;10.70;99.90;;;;;;5044059;28;20452;-80
2022/09/20 01:03:40;;;;;;;6.50;3.23;;;10.80;99.90;;;;;;5042492;28;20449;-79
2022/09/20 01:06:11;;;;;;;6.30;3.37;;;10.70;99.90;;;;;;5044150;28;20455;-79
2022/09/20 01:08:40;;;;;;;11.50;4.17;;;10.80;99.90;;;;;;5042948;28;20530;-79
2022/09/20 01:11:07;;;;;;;7.03;3.00;;;10.70;99.90;;;;;;5044443;28;20476;-81
2022/09/20 01:13:34;;;;;;;10.13;3.40;;;10.80;99.90;;;;;;5052885;28;20519;-79
2022/09/20 01:16:03;;;;;;;9.17;4.33;;;10.80;99.90;;;;;;5056528;28;20563;-80
2022/09/20 01:18:32;;;;;;;8.40;4.30;;;10.70;99.90;;;;;;5055869;28;20517;-82
2022/09/20 01:21:02;;;;;;;6.90;4.60;;;10.60;99.90;;;;;;5054861;28;20451;-81
2022/09/20 01:23:39;;;;;;;10.67;3.93;;;10.70;99.90;;;;;;5051172;28;20448;-81
2022/09/20 01:26:39;;;;;;;7.83;3.80;;;10.70;99.90;;;;;;5052163;28;20519;-80
2022/09/20 01:29:20;;;;;;;8.13;2.80;;;10.70;99.90;;;;;;5052265;28;20463;-82
2022/09/20 01:31:53;;;;;;;6.53;3.97;;;10.70;99.90;;;;;;5032225;28;20484;-80
2022/09/20 01:34:28;;;;;;;6.60;3.20;;;10.70;99.90;;;;;;5040781;28;20494;-80
2022/09/20 01:37:03;;;;;;;8.47;3.50;;;10.70;99.90;;;;;;5051219;28;20506;-80
2022/09/20 01:39:38;;;;;;;7.13;3.30;;;10.70;99.90;;;;;;5051361;28;20519;-81
2022/09/20 01:42:08;;;;;;;10.57;2.70;;;10.60;99.90;;;;;;5050847;28;20427;-79
2022/09/20 01:44:40;;;;;;;10.20;3.90;;;10.60;99.90;;;;;;5050258;28;20523;-80
2022/09/20 01:47:16;;;;;;;7.10;3.17;;;10.50;99.90;;;;;;5051947;28;20428;-80
2022/09/20 01:49:52;;;;;;;8.97;3.20;;;10.50;99.90;;;;;;5030869;28;20437;-80
2022/09/20 01:52:54;;;;;;;8.00;3.00;;;10.50;99.90;;;;;;5030675;28;20472;-82
2022/09/20 01:56:03;;;;;;;6.87;2.93;;;10.50;99.90;;;;;;5050171;28;20439;-79
2022/09/20 01:59:07;;;;;;;4.73;2.60;;;10.50;99.90;;;;;;5050195;28;20461;-78
2022/09/20 02:02:06;;;;;;;6.50;3.83;;;10.50;99.90;;;;;;5049126;28;20846;-80
2022/09/20 02:05:04;;;;;;;8.97;2.90;;;10.50;99.90;;;;;;5049062;28;20438;-80
2022/09/20 02:07:59;;;;;;;5.60;3.47;;;10.40;99.90;;;;;;5049190;28;20478;-81
2022/09/20 02:10:46;;;;;;;7.70;4.23;;;10.40;99.90;;;;;;5047905;28;20439;-79
2022/09/20 02:13:28;;;;;;;6.53;3.40;;;10.40;99.90;;;;;;5017718;28;20469;-80
2022/09/20 02:16:34;;;;;;;5.17;3.67;;;10.40;99.90;;;;;;5030937;28;20457;-80
2022/09/20 02:19:36;;;;;;;8.57;3.30;;;10.40;99.90;;;;;;5047633;28;20526;-81
2022/09/20 02:22:18;;;;;;;7.47;4.00;;;10.50;99.90;;;;;;5015049;28;20448;-80
2022/09/20 02:24:53;;;;;;;7.10;3.60;;;10.40;99.90;;;;;;5046709;28;20436;-80
2022/09/20 02:27:26;;;;;;;6.97;3.93;;;10.40;99.90;;;;;;5048929;28;20474;-81
2022/09/20 02:30:09;;;;;;;6.90;3.73;;;10.40;99.90;;;;;;5048798;28;20440;-81
2022/09/20 02:32:54;;;;;;;6.57;3.60;;;10.40;99.90;;;;;;5049263;28;20481;-80
2022/09/20 02:35:39;;;;;;;4.97;3.60;;;10.30;99.90;;;;;;5048194;28;20455;-78
2022/09/20 02:38:22;;;;;;;8.13;4.63;;;10.30;99.90;;;;;;5047537;28;20989;-79
2022/09/20 02:41:22;;;;;;;4.53;3.60;;;10.30;99.90;;;;;;5047756;28;20452;-81
2022/09/20 02:43:58;;;;;;;5.20;3.23;;;10.30;99.90;;;;;;5047310;28;20444;-79
2022/09/20 02:46:31;;;;;;;4.60;3.57;;;10.30;99.90;;;;;;5043484;28;20449;-80
2022/09/20 02:49:10;;;;;;;9.43;3.50;;;10.30;99.90;;;;;;5047291;28;20476;-79
2022/09/20 02:51:41;;;;;;;5.07;3.90;;;10.30;99.90;;;;;;5028366;28;20548;-80
2022/09/20 02:54:20;;;;;;;6.50;3.77;;;10.30;99.90;;;;;;5028611;28;20532;-79
2022/09/20 02:56:54;;;;;;;7.70;4.00;;;10.30;99.90;;;;;;5048796;28;20462;-81
2022/09/20 02:59:31;;;;;;;5.50;3.30;;;10.30;99.90;;;;;;5047956;28;20534;-82
2022/09/20 03:02:08;;;;;;;5.17;3.90;;;10.30;99.90;;;;;;5048527;28;20527;-79
2022/09/20 03:04:48;;;;;;;13.10;3.77;;;10.30;99.90;;;;;;5047525;28;20446;-81
2022/09/20 03:07:25;;;;;;;8.30;4.10;;;10.20;99.90;;;;;;5049734;28;20471;-80
2022/09/20 03:10:05;;;;;;;5.47;4.00;;;10.20;99.90;;;;;;5049013;28;20442;-79
2022/09/20 03:12:42;;;;;;;4.93;3.60;;;10.20;99.90;;;;;;5048637;28;20473;-79
2022/09/20 03:15:20;;;;;;;6.07;3.70;;;10.20;99.90;;;;;;5046978;28;20475;-80
2022/09/20 03:17:52;;;;;;;5.80;3.70;;;10.30;99.90;;;;;;5049471;28;20491;-81
2022/09/20 03:20:31;;;;;;;6.10;3.77;;;10.30;99.90;;;;;;5050067;28;20481;-80
2022/09/20 03:23:10;;;;;;;4.30;3.50;;;10.30;99.90;;;;;;5050175;28;20577;-82
2022/09/20 03:25:50;;;;;;;7.83;3.50;;;10.20;99.90;;;;;;5049632;28;20439;-80
2022/09/20 03:28:37;;;;;;;5.00;4.00;;;10.20;99.90;;;;;;5051435;28;20466;-82
2022/09/20 03:31:14;;;;;;;5.67;3.53;;;10.30;99.90;;;;;;5037976;28;20466;-83
2022/09/20 03:33:51;;;;;;;11.57;5.47;;;10.20;99.90;;;;;;5055263;28;20491;-82
2022/09/20 03:36:36;;;;;;;6.47;4.10;;;10.20;99.90;;;;;;5065795;28;20436;-80
2022/09/20 03:39:23;;;;;;;7.20;4.67;;;10.20;99.90;;;;;;5045751;28;20474;-79
2022/09/20 03:42:00;;;;;;;5.60;3.67;;;10.10;99.90;;;;;;5044702;28;20539;-77
2022/09/20 03:45:05;;;;;;;7.90;4.20;;;10.20;99.90;;;;;;5042131;28;20810;-79
2022/09/20 03:47:53;;;;;;;6.20;3.77;;;10.10;99.90;;;;;;5037300;28;20876;-78
2022/09/20 03:50:35;;;;;;;6.27;3.80;;;10.10;99.90;;;;;;5062138;28;20959;-78
2022/09/20 03:53:18;;;;;;;7.00;4.00;;;10.10;99.90;;;;;;5055445;28;20493;-77
2022/09/20 03:56:13;;;;;;;9.67;4.30;;;10.00;99.90;;;;;;5044482;28;20456;-79
2022/09/20 03:59:02;;;;;;;6.80;4.07;;;10.00;99.90;;;;;;5053313;28;20826;-78
2022/09/20 04:02:00;;;;;;;7.83;3.80;;;9.90;99.90;;;;;;5051950;28;20519;-78
2022/09/20 04:04:34;;;;;;;6.13;4.90;;;9.90;99.90;;;;;;5042676;28;20447;-80
2022/09/20 04:07:19;;;;;;;5.60;4.70;;;9.80;99.90;;;;;;5043087;28;20447;-80
2022/09/20 04:10:16;;;;;;;8.17;4.10;;;9.80;99.90;;;;;;5042137;28;20454;-78
2022/09/20 04:13:02;;;;;;;6.30;4.10;;;9.70;99.90;;;;;;5013873;28;20493;-78
2022/09/20 04:15:37;;;;;;;6.23;3.80;;;9.80;99.90;;;;;;5037244;28;20832;-78
2022/09/20 04:18:12;;;;;;;5.50;3.43;;;9.70;99.90;;;;;;5043225;28;20468;-81
2022/09/20 04:20:46;;;;;;;5.67;3.97;;;9.80;99.90;;;;;;5049492;28;20434;-78
2022/09/20 04:23:21;;;;;;;15.90;4.53;;;9.80;99.90;;;;;;5036319;28;20442;-79
2022/09/20 04:25:51;;;;;;;7.20;4.27;;;9.70;99.90;;;;;;5031548;28;20469;-79
2022/09/20 04:28:25;;;;;;;9.80;3.70;;;9.70;99.90;;;;;;5032156;28;20470;-78
2022/09/20 04:30:56;;;;;;;6.63;4.37;;;9.70;99.90;;;;;;5031622;28;20449;-78
2022/09/20 04:33:28;;;;;;;6.10;3.83;;;9.70;99.90;;;;;;5031531;28;20500;-78
2022/09/20 04:38:55;;;;;;;11.17;4.27;;;9.80;99.90;;;;;;5031967;28;20984;-78
2022/09/20 04:41:52;;;;;;;9.47;4.47;;;9.90;99.90;;;;;;5079846;22;21002;-76
2022/09/20 04:45:01;;;;;;;8.53;4.80;;;9.90;99.90;;;;;;5081839;28;20460;-77
2022/09/20 04:48:09;;;;;;;8.00;4.63;;;10.00;99.90;;;;;;5089008;28;20533;-76
2022/09/20 04:51:05;;;;;;;9.03;4.87;;;10.10;99.90;;;;;;5066293;28;20471;-79
2022/09/20 04:53:57;;;;;;;7.17;4.40;;;10.10;99.90;;;;;;5060054;28;20994;-78
2022/09/20 04:56:38;;;;;;;10.60;4.87;;;10.10;99.90;;;;;;5054431;28;20492;-79
2022/09/20 04:59:07;;;;;;;7.70;4.37;;;10.10;99.90;;;;;;5061136;28;20449;-78
2022/09/20 05:02:28;;;;;;;11.20;5.07;;;10.10;99.90;;;;;;5056969;28;20487;-78
2022/09/20 05:05:23;;;;;;;9.63;4.57;;;10.20;99.90;;;;;;5073612;28;20452;-79
2022/09/20 05:08:39;;;;;;;9.93;4.23;;;10.20;99.90;;;;;;5079264;28;20803;-79
2022/09/20 05:11:46;;;;;;;8.17;4.40;;;10.30;99.90;;;;;;5078976;28;20466;-79
2022/09/20 05:14:58;;;;;;;10.67;5.33;;;10.30;99.90;;;;;;5058237;28;20513;-79
2022/09/20 05:17:43;;;;;;;7.30;4.37;;;10.30;99.90;;;;;;5045091;28;20449;-79
2022/09/20 05:20:26;;;;;;;10.33;5.40;;;10.40;99.90;;;;;;5067132;28;20442;-80
2022/09/20 05:23:14;;;;;;;7.77;5.03;;;10.40;99.90;;;;;;5066837;28;20441;-79
2022/09/20 05:26:07;;;;;;;7.53;4.20;;;10.40;99.90;;;;;;5078707;28;20460;-79
2022/09/20 05:28:41;;;;;;;13.20;5.70;;;10.50;99.90;;;;;;5078538;28;20502;-79
2022/09/20 05:31:14;;;;;;;9.53;4.53;;;10.50;99.90;;;;;;5078769;28;20480;-79
2022/09/20 05:33:52;;;;;;;5.10;4.43;;;10.60;99.90;;;;;;5077017;28;20482;-79
2022/09/20 05:36:29;;;;;;;6.33;4.20;;;10.60;99.90;;;;;;5079313;28;20442;-78
2022/09/20 05:39:02;;;;;;;12.43;5.60;;;10.60;99.90;;;;;;5078232;28;20521;-79
2022/09/20 05:41:39;;;;;;;7.73;4.87;;;10.70;99.90;;;;;;5080430;28;20576;-78
2022/09/20 05:44:16;;;;;;;7.50;5.13;;;10.70;99.90;;;;;;5077203;28;20461;-79
2022/09/20 05:46:56;;;;;;;7.00;4.37;;;10.70;99.90;;;;;;5071551;28;20439;-79
2022/09/20 05:49:38;;;;;;;8.93;5.27;;;10.70;99.90;;;;;;5072585;28;20809;-80
2022/09/20 05:52:18;;;;;;;8.60;5.63;;;10.70;99.90;;;;;;5087009;28;21010;-79
2022/09/20 05:55:20;;;;;;;9.10;5.10;;;10.70;99.90;;;;;;5081057;28;20452;-78
2022/09/20 05:58:06;;;;;;;9.97;5.80;;;10.80;99.90;;;;;;5086396;28;20453;-80
2022/09/20 06:00:39;;;;;;;8.17;5.60;;;10.70;99.90;;;;;;5076984;28;21009;-79
2022/09/20 06:03:13;;;;;;;8.53;5.47;;;10.80;99.90;;;;;;5089241;28;20446;-78
2022/09/20 06:05:53;;;;;;;7.97;5.30;;;10.80;99.90;;;;;;5083579;28;20423;-78
2022/09/20 06:08:57;;;;;;;8.77;5.53;;;10.90;99.90;;;;;;5083514;28;20452;-79
2022/09/20 06:11:43;;;;;;;10.80;6.60;;;10.90;99.90;;;;;;5067991;28;20479;-78
2022/09/20 06:14:19;;;;;;;8.10;4.80;;;11.00;99.90;;;;;;5062608;28;20439;-79
2022/09/20 06:16:54;;;;;;;7.27;6.23;;;11.10;99.90;;;;;;5063587;28;20534;-78
2022/09/20 06:19:32;;;;;;;10.27;6.60;;;11.10;99.90;;;;;;5059929;28;20426;-78
2022/09/20 06:22:05;;;;;;;6.43;5.20;;;11.20;99.90;;;;;;5070930;28;20466;-79
2022/09/20 06:24:43;;;;;;;8.70;5.87;;;11.20;99.90;;;;;;5077097;28;20448;-78
2022/09/20 06:27:17;;;;;;;8.87;6.40;;;11.30;99.90;;;;;;5074338;28;20446;-78
2022/09/20 06:29:51;;;;;;;8.57;5.53;;;11.30;99.90;;;;;;5082212;28;20458;-79
2022/09/20 06:32:18;;;;;;;7.40;5.10;;;11.40;99.90;;;;;;5078694;28;20521;-78
2022/09/20 06:34:46;;;;;;;7.37;4.73;;;11.40;99.90;;;;;;5075987;28;20454;-79
2022/09/20 06:43:09;;;;;;;9.70;6.30;;;11.70;99.90;;;;;;5078443;28;20846;-78
2022/09/20 06:45:36;;;;;;;11.80;6.67;;;11.70;99.90;;;;;;5071120;28;20443;-78
2022/09/20 06:48:03;;;;;;;9.63;6.30;;;11.80;99.90;;;;;;5080981;28;20511;-78
2022/09/20 06:50:31;;;;;;;7.97;5.83;;;11.80;99.90;;;;;;5084138;28;20456;-78
2022/09/20 06:53:01;;;;;;;8.87;6.30;;;11.90;99.90;;;;;;5083771;28;20497;-79
2022/09/20 06:55:36;;;;;;;6.77;5.20;;;11.90;99.90;;;;;;5086203;28;20461;-79
2022/09/20 06:58:05;;;;;;;18.33;8.47;;;11.90;99.90;;;;;;5077875;28;20455;-79
2022/09/20 07:00:32;;;;;;;11.33;7.10;;;11.90;99.90;;;;;;5076688;28;20526;-78
2022/09/20 07:02:59;;;;;;;15.80;7.40;;;12.00;99.90;;;;;;5072693;28;20481;-78
2022/09/20 07:05:26;;;;;;;15.67;8.37;;;12.00;99.90;;;;;;5078218;28;20792;-78
2022/09/20 07:07:57;;;;;;;13.23;6.33;;;12.00;99.90;;;;;;5077195;28;20436;-78
2022/09/20 07:10:27;;;;;;;9.73;6.50;;;12.00;99.90;;;;;;5080191;28;20446;-79
2022/09/20 07:12:59;;;;;;;14.60;6.60;;;12.00;99.90;;;;;;5078575;28;20540;-79
2022/09/20 07:15:27;;;;;;;11.47;6.93;;;12.10;99.90;;;;;;5084541;28;20508;-79
2022/09/20 07:17:53;;;;;;;16.10;9.57;;;12.00;99.90;;;;;;5076677;28;20448;-80
2022/09/20 07:20:20;;;;;;;9.30;5.70;;;11.90;99.90;;;;;;5073286;28;21099;-78
2022/09/20 07:22:48;;;;;;;10.63;6.03;;;12.10;99.90;;;;;;5078662;28;20998;-78
2022/09/20 07:25:16;;;;;;;10.13;7.37;;;12.10;99.90;;;;;;5076367;28;20444;-78
2022/09/20 07:27:45;;;;;;;12.00;6.07;;;12.10;99.90;;;;;;5081483;28;20454;-79
2022/09/20 07:30:13;;;;;;;16.20;9.00;;;12.20;99.90;;;;;;5080035;28;20457;-79
2022/09/20 07:32:40;;;;;;;17.87;8.13;;;12.20;99.90;;;;;;5076815;28;20480;-78
2022/09/20 07:35:08;;;;;;;15.97;7.23;;;12.10;99.90;;;;;;5082593;28;20450;-78
2022/09/20 07:37:35;;;;;;;9.97;5.37;;;12.10;99.90;;;;;;5074625;28;20453;-79
2022/09/20 07:40:03;;;;;;;8.60;5.30;;;12.10;99.90;;;;;;5082602;28;20449;-78
2022/09/20 07:42:30;;;;;;;7.93;5.30;;;12.20;99.90;;;;;;5081112;28;20541;-78
2022/09/20 07:45:01;;;;;;;11.87;6.67;;;12.20;99.90;;;;;;5081623;28;20809;-79
2022/09/20 07:47:30;;;;;;;10.20;6.10;;;12.30;99.90;;;;;;5080695;28;20507;-78
2022/09/20 07:49:57;;;;;;;10.13;6.47;;;12.40;99.90;;;;;;5081478;28;20473;-79
2022/09/20 07:52:24;;;;;;;14.20;5.90;;;12.50;99.90;;;;;;5067113;28;20472;-78
2022/09/20 07:54:51;;;;;;;7.20;5.23;;;12.60;99.90;;;;;;5059017;28;20809;-77
2022/09/20 07:57:18;;;;;;;10.00;6.50;;;12.70;99.90;;;;;;5080206;28;20523;-78
2022/09/20 07:59:44;;;;;;;12.93;6.80;;;12.70;99.90;;;;;;5076769;28;21135;-78
2022/09/20 08:02:15;;;;;;;14.00;7.57;;;12.70;99.90;;;;;;5066599;28;20529;-78
2022/09/20 08:04:42;;;;;;;17.50;7.10;;;12.70;99.90;;;;;;5063364;28;20452;-78
2022/09/20 08:07:08;;;;;;;12.53;7.87;;;12.80;99.90;;;;;;5061564;28;20454;-78
2022/09/20 08:09:35;;;;;;;20.47;8.87;;;12.80;99.90;;;;;;5072327;28;20459;-78
2022/09/20 08:12:04;;;;;;;12.90;7.37;;;12.90;99.90;;;;;;5062769;28;20976;-77
2022/09/20 08:14:31;;;;;;;10.67;6.77;;;13.00;99.90;;;;;;5071965;28;20493;-77
2022/09/20 08:16:59;;;;;;;12.93;7.87;;;13.00;99.90;;;;;;5073336;28;20468;-78
2022/09/20 08:19:27;;;;;;;11.83;7.23;;;13.10;99.90;;;;;;5069022;28;20488;-77
2022/09/20 08:21:54;;;;;;;14.20;8.83;;;13.00;99.90;;;;;;5078002;28;20809;-78
2022/09/20 08:24:21;;;;;;;12.60;6.40;;;13.10;99.90;;;;;;5077696;28;20959;-79
2022/09/20 08:26:48;;;;;;;11.03;5.47;;;13.20;99.90;;;;;;5070844;28;20465;-78
2022/09/20 08:29:15;;;;;;;14.07;7.93;;;13.30;99.90;;;;;;5077440;28;20442;-78
2022/09/20 08:31:43;;;;;;;11.50;7.30;;;13.30;99.90;;;;;;5077083;28;20559;-79
2022/09/20 08:34:11;;;;;;;10.97;7.40;;;13.40;99.90;;;;;;5089266;28;20499;-79
2022/09/20 08:36:44;;;;;;;13.27;6.13;;;13.40;99.90;;;;;;5082210;28;20919;-78
2022/09/20 08:39:26;;;;;;;9.40;6.53;;;13.40;99.90;;;;;;5077328;28;20451;-77
2022/09/20 08:41:56;;;;;;;8.80;6.30;;;13.40;99.90;;;;;;5072821;28;20483;-77
2022/09/20 08:44:27;;;;;;;13.77;6.17;;;13.40;99.90;;;;;;5062972;28;20453;-80
2022/09/20 08:47:08;;;;;;;8.50;5.90;;;13.40;99.90;;;;;;5078160;28;20448;-81
2022/09/20 08:49:36;;;;;;;15.93;6.10;;;13.50;99.90;;;;;;5079963;28;20458;-79
2022/09/20 08:52:04;;;;;;;10.27;7.30;;;13.50;99.90;;;;;;5077029;28;20475;-80
2022/09/20 08:54:33;;;;;;;11.13;4.80;;;13.40;99.90;;;;;;5061482;28;20485;-79
2022/09/20 08:57:05;;;;;;;8.93;4.83;;;13.40;99.90;;;;;;5067565;28;20458;-78
2022/09/20 08:59:33;;;;;;;10.10;6.17;;;13.40;99.90;;;;;;5076547;28;20536;-78
2022/09/20 09:02:00;;;;;;;11.63;5.60;;;13.40;99.90;;;;;;5071885;28;20490;-82
2022/09/20 09:04:35;;;;;;;10.57;5.87;;;13.40;99.90;;;;;;5071367;28;20821;-81
2022/09/20 09:07:02;;;;;;;9.93;5.57;;;13.50;99.90;;;;;;5072711;28;20462;-80
2022/09/20 09:09:40;;;;;;;15.50;6.30;;;13.50;99.90;;;;;;5075679;28;20465;-79
2022/09/20 09:12:14;;;;;;;6.20;3.73;;;13.50;99.90;;;;;;5076395;28;20503;-78
2022/09/20 09:14:53;;;;;;;10.87;5.70;;;13.60;99.90;;;;;;5055958;28;20465;-80
2022/09/20 09:17:22;;;;;;;13.30;5.87;;;13.50;99.90;;;;;;5073978;28;20447;-79
2022/09/20 09:19:50;;;;;;;12.33;5.03;;;13.60;99.90;;;;;;5075137;28;20445;-79
2022/09/20 09:22:23;;;;;;;12.07;5.80;;;13.70;99.90;;;;;;5079038;28;20481;-79
2022/09/20 09:25:33;;;;;;;9.70;5.63;;;13.70;99.90;;;;;;5070658;28;20926;-78
2022/09/20 09:28:02;;;;;;;10.43;4.67;;;13.80;99.90;;;;;;5069910;28;20496;-79
2022/09/20 09:30:31;;;;;;;7.73;5.10;;;14.00;99.90;;;;;;5070901;28;20511;-78
2022/09/20 09:33:18;;;;;;;11.00;4.50;;;14.10;99.90;;;;;;5078157;28;20491;-80
2022/09/20 09:35:52;;;;;;;5.10;3.50;;;14.20;99.90;;;;;;5063905;28;20459;-79
2022/09/20 09:38:22;;;;;;;9.73;4.07;;;14.40;99.90;;;;;;5074357;28;20433;-80
2022/09/20 09:40:53;;;;;;;9.83;4.40;;;14.50;99.90;;;;;;5078204;28;20494;-79
2022/09/20 09:43:22;;;;;;;10.67;3.80;;;14.60;99.90;;;;;;5063476;28;20479;-78
2022/09/20 09:45:49;;;;;;;10.17;4.00;;;14.60;99.90;;;;;;5059123;28;20531;-80
2022/09/20 09:48:23;;;;;;;7.40;4.07;;;14.70;99.90;;;;;;5071860;28;20816;-78
2022/09/20 09:50:52;;;;;;;6.77;3.20;;;14.60;99.90;;;;;;5067401;28;20467;-79
2022/09/20 09:53:22;;;;;;;4.70;2.87;;;14.50;99.90;;;;;;5058169;28;20886;-81
2022/09/20 09:56:25;;;;;;;5.40;2.73;;;14.40;99.90;;;;;;5060131;28;20491;-79
2022/09/20 09:59:14;;;;;;;10.00;2.83;;;14.30;99.90;;;;;;5079521;28;20456;-78
2022/09/20 10:01:51;;;;;;;5.60;2.93;;;14.20;99.90;;;;;;5074847;28;20474;-79
2022/09/20 10:04:25;;;;;;;6.43;2.93;;;14.10;99.90;;;;;;5070360;28;20465;-79
2022/09/20 10:06:58;;;;;;;10.27;3.10;;;14.00;99.90;;;;;;5075460;28;20945;-79
2022/09/20 10:09:44;;;;;;;9.90;5.07;;;14.10;99.90;;;;;;5079418;28;20529;-79
2022/09/20 10:12:25;;;;;;;8.80;4.23;;;14.30;99.90;;;;;;5059564;28;20991;-78
2022/09/20 10:15:09;;;;;;;7.80;3.60;;;14.60;99.90;;;;;;5063423;28;20497;-80
2022/09/20 10:17:49;;;;;;;11.10;4.50;;;14.60;99.90;;;;;;5081507;28;20424;-81
2022/09/20 10:20:34;;;;;;;5.40;3.30;;;14.40;99.90;;;;;;5081203;28;20507;-79
2022/09/20 10:23:15;;;;;;;11.63;3.57;;;14.30;99.90;;;;;;5069866;28;20465;-79
2022/09/20 10:25:50;;;;;;;6.87;2.60;;;14.20;99.90;;;;;;5075027;28;20520;-79
2022/09/20 10:28:30;;;;;;;6.90;2.17;;;14.00;99.90;;;;;;5078455;28;20442;-78
2022/09/20 10:31:16;;;;;;;8.40;2.73;;;14.10;99.90;;;;;;5061541;28;20467;-78
2022/09/20 10:34:02;;;;;;;5.57;2.03;;;14.00;99.90;;;;;;5065301;28;20570;-78
2022/09/20 10:36:44;;;;;;;4.20;1.70;;;13.90;99.90;;;;;;5075468;28;20453;-79
2022/09/20 10:39:18;;;;;;;4.57;1.97;;;14.10;99.90;;;;;;5061208;28;20546;-80
2022/09/20 10:44:51;;;;;;;5.70;2.17;;;14.10;99.90;;;;;;5078135;28;20445;-79
2022/09/20 10:47:22;;;;;;;5.10;1.53;;;14.10;99.90;;;;;;5067918;28;20454;-79
2022/09/20 10:50:00;;;;;;;4.10;1.60;;;14.10;99.90;;;;;;5074239;28;20518;-79
2022/09/20 10:52:40;;;;;;;5.60;2.00;;;14.30;99.90;;;;;;5078387;28;20545;-82
2022/09/20 10:55:33;;;;;;;7.90;2.30;;;14.40;99.90;;;;;;5077749;28;20468;-82
2022/09/20 10:58:38;;;;;;;10.43;1.90;;;14.50;99.90;;;;;;5079978;28;20459;-79
2022/09/20 11:01:18;;;;;;;6.40;1.97;;;14.70;99.90;;;;;;5072573;28;20466;-78
2022/09/20 11:04:17;;;;;;;5.50;1.60;;;15.10;99.90;;;;;;5087544;28;20820;-81
2022/09/20 11:06:56;;;;;;;5.93;1.70;;;15.80;99.90;;;;;;5090824;28;20486;-78
2022/09/20 11:09:29;;;;;;;5.63;1.50;;;16.00;99.90;;;;;;5069404;28;20777;-79
2022/09/20 11:12:06;;;;;;;3.70;1.20;;;16.60;99.90;;;;;;5067504;28;20462;-79
2022/09/20 11:14:37;;;;;;;6.27;1.20;;;16.80;99.90;;;;;;5088868;28;20581;-79
2022/09/20 11:17:12;;;;;;;12.80;1.70;;;16.40;99.90;;;;;;5084883;28;20430;-80
2022/09/20 11:19:51;;;;;;;11.10;2.27;;;16.90;99.90;;;;;;5082502;28;20444;-80
2022/09/20 11:22:22;;;;;;;2.53;1.50;;;17.60;99.90;;;;;;5068419;28;20468;-78
2022/09/20 11:24:55;;;;;;;4.37;1.20;;;17.40;99.90;;;;;;5067606;28;20550;-80
2022/09/20 11:27:28;;;;;;;5.27;1.23;;;17.10;99.90;;;;;;5070881;28;20447;-80
2022/09/20 11:30:01;;;;;;;2.63;1.50;;;16.70;99.90;;;;;;5088441;28;20444;-80
2022/09/20 11:32:35;;;;;;;3.80;1.60;;;16.40;99.90;;;;;;5087345;28;20497;-81
2022/09/20 11:35:07;;;;;;;6.40;1.60;;;16.20;99.90;;;;;;5080444;28;20474;-79
2022/09/20 11:37:39;;;;;;;5.27;1.30;;;16.10;99.90;;;;;;5085837;28;20880;-80
2022/09/20 11:40:21;;;;;;;4.07;1.67;;;16.00;99.90;;;;;;5087948;28;20866;-80
2022/09/20 11:42:51;;;;;;;4.87;1.93;;;16.20;99.90;;;;;;5083502;28;20458;-83
2022/09/20 11:45:19;;;;;;;4.80;1.80;;;16.20;99.90;;;;;;5083316;28;20472;-79
2022/09/20 11:47:53;;;;;;;3.93;1.90;;;16.30;99.90;;;;;;5082177;28;20450;-78
2022/09/20 11:51:07;;;;;;;4.10;1.97;;;16.10;99.90;;;;;;5081583;28;20455;-79
2022/09/20 11:53:47;;;;;;;5.00;2.57;;;16.00;99.90;;;;;;5054442;28;20506;-80
2022/09/20 11:56:19;;;;;;;5.00;2.07;;;15.90;99.90;;;;;;5058881;28;20430;-80
2022/09/20 11:58:48;;;;;;;3.17;1.40;;;15.80;99.90;;;;;;5074300;28;20561;-81
2022/09/20 12:01:17;;;;;;;6.30;1.80;;;16.00;99.90;;;;;;5069743;28;20497;-80
2022/09/20 12:03:55;;;;;;;4.47;2.10;;;16.00;99.90;;;;;;5068646;28;20553;-80
2022/09/20 12:06:32;;;;;;;9.50;1.80;;;16.10;99.90;;;;;;5070791;28;20961;-81
2022/09/20 12:09:00;;;;;;;4.67;1.80;;;16.40;99.90;;;;;;5065679;28;20471;-81
2022/09/20 12:11:31;;;;;;;3.30;1.77;;;16.50;99.90;;;;;;5076034;28;20907;-80
2022/09/20 12:14:04;;;;;;;7.40;1.80;;;16.40;99.90;;;;;;5075960;28;21196;-80
2022/09/20 12:16:45;;;;;;;3.97;1.77;;;16.20;99.90;;;;;;5077356;28;20512;-81
2022/09/20 12:19:18;;;;;;;3.50;1.53;;;16.00;99.90;;;;;;5077986;28;20445;-81
2022/09/20 12:22:28;;;;;;;2.37;1.17;;;15.80;99.90;;;;;;5076904;28;20468;-81
2022/09/20 12:25:40;;;;;;;3.70;1.80;;;15.80;99.90;;;;;;4994932;28;20456;-82
2022/09/20 12:28:14;;;;;;;2.93;1.30;;;15.80;99.90;;;;;;5000208;28;20456;-81
2022/09/20 12:31:36;;;;;;;5.30;1.60;;;16.70;99.90;;;;;;5057459;28;20544;-79
2022/09/20 12:34:24;;;;;;;3.33;1.70;;;17.50;99.90;;;;;;5075697;28;20504;-81
2022/09/20 12:37:18;;;;;;;8.87;1.70;;;17.40;99.90;;;;;;5071800;28;20532;-80
2022/09/20 12:39:53;;;;;;;4.77;2.33;;;17.00;99.90;;;;;;5064587;28;20434;-79
2022/09/20 12:42:30;;;;;;;8.00;1.77;;;16.90;99.90;;;;;;5065377;28;20485;-82
2022/09/20 12:45:03;;;;;;;7.00;2.47;;;16.70;99.90;;;;;;5080414;28;20455;-80
2022/09/20 12:47:32;;;;;;;5.23;2.47;;;16.80;99.90;;;;;;5079010;28;20446;-80
2022/09/20 12:52:59;;;;;;;4.63;1.60;;;16.80;99.90;;;;;;5074931;28;20536;-81
2022/09/20 12:55:39;;;;;;;4.63;1.40;;;16.80;99.90;;;;;;5077414;28;20474;-79
2022/09/20 12:58:17;;;;;;;5.97;1.60;;;16.90;99.90;;;;;;5073521;28;20453;-81
2022/09/20 13:00:46;;;;;;;6.17;1.60;;;17.30;99.90;;;;;;5067721;28;20489;-81
2022/09/20 13:03:27;;;;;;;5.43;1.43;;;17.20;99.90;;;;;;5063891;28;20451;-78
2022/09/20 13:06:25;;;;;;;2.83;1.10;;;17.50;99.90;;;;;;5072073;28;20478;-79
2022/09/20 13:09:04;;;;;;;2.93;1.17;;;18.10;99.90;;;;;;5066975;28;20854;-79
2022/09/20 13:11:40;;;;;;;8.07;1.30;;;18.60;99.90;;;;;;5075214;28;20496;-81
2022/09/20 13:14:12;;;;;;;5.03;1.60;;;19.40;99.90;;;;;;5081791;28;20484;-84
2022/09/20 13:16:48;;;;;;;4.40;1.20;;;20.10;99.90;;;;;;5078849;28;20462;-80
2022/09/20 13:19:18;;;;;;;6.20;1.30;;;20.70;99.90;;;;;;5064176;28;20450;-79
2022/09/20 13:21:53;;;;;;;5.67;1.10;;;21.20;99.90;;;;;;5092956;22;20498;-80
2022/09/20 13:24:24;;;;;;;3.97;1.47;;;21.60;99.90;;;;;;5099754;28;20433;-79
2022/09/20 13:26:56;;;;;;;3.83;0.97;;;21.50;99.90;;;;;;5093518;28;20813;-78
2022/09/20 13:29:27;;;;;;;3.87;1.43;;;21.90;99.90;;;;;;5098401;28;20444;-79
2022/09/20 13:31:55;;;;;;;7.10;1.40;;;20.90;99.90;;;;;;5091850;28;20462;-78
2022/09/20 13:34:24;;;;;;;5.03;1.50;;;20.10;99.90;;;;;;5102459;28;20490;-80
2022/09/20 13:36:57;;;;;;;6.50;1.37;;;19.40;99.90;;;;;;5105197;28;20538;-77
2022/09/20 13:39:36;;;;;;;5.50;1.47;;;19.00;99.90;;;;;;5105969;28;20452;-82
2022/09/20 13:42:10;;;;;;;6.63;1.73;;;18.20;99.90;;;;;;5084781;28;20477;-79
2022/09/20 13:44:37;;;;;;;2.83;0.90;;;17.70;99.90;;;;;;5084175;28;20425;-80
2022/09/20 13:47:22;;;;;;;5.17;1.13;;;17.40;99.90;;;;;;5103214;28;20464;-81
2022/09/20 13:49:49;;;;;;;5.40;1.30;;;17.10;99.90;;;;;;5103060;28;20465;-80
2022/09/20 13:52:24;;;;;;;4.23;1.20;;;16.90;99.90;;;;;;5085474;28;20560;-81